createdAt,value
2022-12-18T00:01:34.235Z,70.18
2022-12-18T00:04:05.921Z,70.63
2022-12-18T00:06:34.738Z,70.94
2022-12-18T00:09:05.115Z,71.43
2022-12-18T00:11:33.862Z,71.92
2022-12-18T00:14:02.274Z,71.95
2022-12-18T00:16:34.028Z,71.13
2022-12-18T00:19:02.363Z,70.41
2022-12-18T00:21:32.509Z,69.86
2022-12-18T00:24:00.881Z,69.08
2022-12-18T00:26:32.613Z,68.69
2022-12-18T00:29:05.297Z,68.67
2022-12-18T00:31:34.215Z,68.38
2022-12-18T00:34:03.137Z,69.41
2022-12-18T00:36:34.256Z,69.04
2022-12-18T00:39:03.951Z,69.13
2022-12-18T00:41:47.323Z,68.97
2022-12-18T00:44:17.416Z,68.69
2022-12-18T00:46:46.899Z,68.80
2022-12-18T00:49:15.353Z,68.18
2022-12-18T00:51:43.536Z,67.36
2022-12-18T00:54:12.872Z,67.16
2022-12-18T00:56:50.062Z,67.09
2022-12-18T00:59:19.705Z,67.60
2022-12-18T01:01:48.000Z,67.18
2022-12-18T01:04:16.893Z,67.36
2022-12-18T01:06:47.237Z,67.37
2022-12-18T01:09:15.445Z,67.85
2022-12-18T01:11:44.746Z,67.44
2022-12-18T01:14:12.467Z,68.68
2022-12-18T01:16:40.497Z,68.46
2022-12-18T01:19:08.725Z,68.26
2022-12-18T01:21:36.648Z,68.44
2022-12-18T01:24:06.893Z,68.07
2022-12-18T01:26:35.297Z,67.93
2022-12-18T01:29:04.651Z,68.43
2022-12-18T01:31:34.940Z,68.79
2022-12-18T01:34:04.869Z,68.69
2022-12-18T01:36:34.289Z,69.10
2022-12-18T01:39:03.956Z,68.83
2022-12-18T01:42:02.444Z,68.51
2022-12-18T01:45:01.602Z,69.44
2022-12-18T01:47:32.510Z,69.49
2022-12-18T01:50:04.510Z,69.39
2022-12-18T01:52:34.923Z,69.21
2022-12-18T01:55:05.770Z,69.46
2022-12-18T01:57:34.183Z,69.43
2022-12-18T02:00:12.192Z,69.66
2022-12-18T02:02:43.867Z,69.79
2022-12-18T02:05:17.080Z,69.10
2022-12-18T02:07:52.004Z,69.24
2022-12-18T02:10:29.223Z,69.34
2022-12-18T02:13:04.895Z,69.43
2022-12-18T02:15:41.501Z,69.16
2022-12-18T02:18:14.282Z,69.83
2022-12-18T02:20:49.214Z,69.47
2022-12-18T02:23:35.749Z,70.02
2022-12-18T02:26:22.649Z,70.65
2022-12-18T02:28:57.316Z,70.71
2022-12-18T02:31:30.797Z,70.44
2022-12-18T02:34:02.851Z,70.28
2022-12-18T02:36:38.402Z,70.32
2022-12-18T02:39:09.544Z,69.77
2022-12-18T02:41:42.415Z,70.22
2022-12-18T02:44:13.026Z,70.68
2022-12-18T02:46:44.562Z,71.01
2022-12-18T02:49:28.311Z,71.27
2022-12-18T02:52:07.189Z,71.40
2022-12-18T02:54:51.451Z,71.20
2022-12-18T02:57:26.767Z,71.39
2022-12-18T03:00:04.074Z,71.11
2022-12-18T03:02:39.485Z,71.16
2022-12-18T03:05:13.972Z,71.62
2022-12-18T03:07:49.059Z,71.59
2022-12-18T03:10:22.093Z,71.77
2022-12-18T03:13:00.239Z,72.15
2022-12-18T03:15:32.881Z,71.63
2022-12-18T03:18:18.343Z,71.53
2022-12-18T03:20:50.051Z,71.43
2022-12-18T03:23:26.397Z,70.77
2022-12-18T03:26:07.171Z,69.84
2022-12-18T03:28:44.408Z,69.88
2022-12-18T03:31:14.499Z,69.48
2022-12-18T03:33:48.090Z,69.64
2022-12-18T03:36:17.387Z,70.27
2022-12-18T03:38:45.573Z,69.97
2022-12-18T03:41:21.767Z,69.15
2022-12-18T03:44:17.490Z,69.47
2022-12-18T03:46:57.010Z,69.14
2022-12-18T03:49:30.923Z,69.67
2022-12-18T03:52:06.144Z,69.51
2022-12-18T03:54:37.547Z,69.83
2022-12-18T03:57:17.801Z,69.92
2022-12-18T03:59:51.724Z,70.15
2022-12-18T04:02:24.305Z,70.67
2022-12-18T04:04:55.287Z,70.35
2022-12-18T04:07:25.957Z,70.59
2022-12-18T04:09:57.960Z,71.40
2022-12-18T04:12:27.371Z,71.05
2022-12-18T04:14:56.649Z,71.64
2022-12-18T04:17:25.947Z,72.04
2022-12-18T04:19:56.775Z,72.05
2022-12-18T04:22:26.209Z,72.22
2022-12-18T04:24:59.738Z,72.19
2022-12-18T04:27:34.208Z,72.16
2022-12-18T04:30:03.689Z,72.79
2022-12-18T04:32:32.429Z,73.05
2022-12-18T04:35:02.093Z,73.18
2022-12-18T04:37:30.523Z,73.51
2022-12-18T04:39:58.530Z,73.62
2022-12-18T04:42:34.420Z,74.34
2022-12-18T04:45:03.995Z,74.48
2022-12-18T04:47:33.111Z,74.58
2022-12-18T04:50:01.097Z,74.83
2022-12-18T04:52:29.089Z,74.47
2022-12-18T04:54:59.992Z,74.71
2022-12-18T04:57:28.009Z,75.08
2022-12-18T04:59:56.399Z,74.84
2022-12-18T05:02:25.768Z,74.33
2022-12-18T05:04:53.817Z,74.22
2022-12-18T05:07:21.814Z,74.30
2022-12-18T05:09:49.849Z,73.87
2022-12-18T05:12:17.837Z,74.61
2022-12-18T05:14:45.738Z,74.50
2022-12-18T05:17:13.643Z,74.20
2022-12-18T05:19:43.017Z,74.33
2022-12-18T05:22:10.794Z,74.68
2022-12-18T05:24:39.146Z,74.93
2022-12-18T05:27:07.122Z,75.66
2022-12-18T05:29:35.223Z,75.74
2022-12-18T05:32:03.174Z,75.32
2022-12-18T05:34:31.103Z,75.73
2022-12-18T05:37:00.387Z,76.06
2022-12-18T05:39:28.156Z,76.51
2022-12-18T05:41:56.535Z,76.53
2022-12-18T05:44:24.676Z,76.74
2022-12-18T05:46:52.656Z,76.79
2022-12-18T05:49:20.633Z,76.01
2022-12-18T05:51:48.711Z,76.63
2022-12-18T05:54:18.068Z,76.48
2022-12-18T05:56:48.777Z,77.16
2022-12-18T05:59:17.050Z,77.18
2022-12-18T06:01:45.239Z,77.22
2022-12-18T06:04:13.365Z,77.54
2022-12-18T06:06:41.447Z,77.94
2022-12-18T06:09:10.559Z,78.13
2022-12-18T06:11:40.450Z,78.03
2022-12-18T06:14:09.343Z,78.48
2022-12-18T06:16:37.402Z,78.97
2022-12-18T06:19:07.509Z,78.85
2022-12-18T06:21:36.082Z,78.69
2022-12-18T06:24:04.356Z,78.67
2022-12-18T06:26:32.310Z,78.76
2022-12-18T06:29:01.697Z,78.54
2022-12-18T06:31:29.690Z,78.66
2022-12-18T06:33:58.743Z,78.85
2022-12-18T06:36:26.731Z,79.38
2022-12-18T06:38:54.697Z,79.24
2022-12-18T06:41:23.475Z,79.07
2022-12-18T06:43:54.626Z,79.33
2022-12-18T06:46:27.898Z,79.53
2022-12-18T06:48:55.854Z,79.09
2022-12-18T06:51:25.139Z,78.73
2022-12-18T06:53:53.362Z,78.50
2022-12-18T06:56:21.339Z,78.15
2022-12-18T06:58:52.119Z,77.65
2022-12-18T07:01:20.298Z,76.92
2022-12-18T07:03:54.014Z,76.52
2022-12-18T07:06:24.227Z,75.99
2022-12-18T07:08:53.167Z,75.34
2022-12-18T07:11:21.406Z,74.55
2022-12-18T07:13:50.057Z,74.30
2022-12-18T07:16:24.801Z,73.39
2022-12-18T07:18:56.508Z,72.97
2022-12-18T07:21:26.152Z,72.81
2022-12-18T07:23:54.271Z,72.90
2022-12-18T07:26:23.479Z,71.81
2022-12-18T07:28:51.907Z,71.54
2022-12-18T07:31:22.910Z,71.45
2022-12-18T07:33:53.233Z,71.74
2022-12-18T07:36:25.358Z,71.05
2022-12-18T07:38:54.063Z,70.42
2022-12-18T07:41:22.926Z,69.92
2022-12-18T07:43:50.988Z,69.61
2022-12-18T07:46:20.158Z,69.15
2022-12-18T07:48:49.801Z,68.40
2022-12-18T07:51:18.763Z,67.52
2022-12-18T07:53:49.614Z,66.69
2022-12-18T07:56:29.409Z,66.27
2022-12-18T07:58:58.558Z,65.69
2022-12-18T08:01:26.797Z,65.42
2022-12-18T08:03:55.050Z,65.38
2022-12-18T08:06:25.117Z,64.31
2022-12-18T08:08:55.752Z,63.38
2022-12-18T08:11:25.491Z,63.13
2022-12-18T08:13:53.573Z,63.23
2022-12-18T08:16:22.459Z,63.44
2022-12-18T08:18:51.316Z,63.61
2022-12-18T08:21:22.156Z,63.12
2022-12-18T08:23:51.505Z,62.97
2022-12-18T08:26:22.100Z,63.84
2022-12-18T08:28:50.896Z,63.83
2022-12-18T08:31:19.387Z,64.31
2022-12-18T08:33:47.629Z,64.12
2022-12-18T08:36:15.594Z,64.92
2022-12-18T08:38:43.584Z,64.24
2022-12-18T08:41:13.896Z,62.86
2022-12-18T08:44:00.885Z,62.91
2022-12-18T08:46:35.254Z,61.64
2022-12-18T08:49:03.381Z,59.99
2022-12-18T08:51:32.053Z,58.91
2022-12-18T08:54:00.069Z,56.85
2022-12-18T08:56:28.062Z,55.47
2022-12-18T08:58:57.681Z,54.80
2022-12-18T09:01:26.265Z,55.39
2022-12-18T09:03:54.333Z,54.63
2022-12-18T09:06:23.951Z,52.83
2022-12-18T09:08:52.175Z,52.25
2022-12-18T09:11:22.910Z,53.98
2022-12-18T09:13:51.678Z,52.31
2022-12-18T09:16:24.970Z,51.36
2022-12-18T09:19:00.215Z,51.25
2022-12-18T09:21:30.157Z,51.68
2022-12-18T09:23:58.446Z,50.44
2022-12-18T09:26:28.383Z,50.23
2022-12-18T09:28:56.912Z,48.34
2022-12-18T09:31:26.760Z,48.24
2022-12-18T09:33:56.691Z,47.41
2022-12-18T09:36:24.707Z,47.34
2022-12-18T09:38:52.630Z,45.16
2022-12-18T09:41:39.350Z,44.57
2022-12-18T09:44:16.072Z,45.34
2022-12-18T09:46:49.758Z,45.04
2022-12-18T09:49:22.206Z,44.77
2022-12-18T09:51:54.770Z,45.46
2022-12-18T09:54:27.861Z,46.31
2022-12-18T09:56:56.339Z,46.01
2022-12-18T09:59:27.688Z,46.70
2022-12-18T10:01:58.412Z,49.40
2022-12-18T10:04:27.476Z,48.49
2022-12-18T10:07:09.005Z,48.46
2022-12-18T10:09:45.632Z,49.65
2022-12-18T10:12:23.561Z,50.86
2022-12-18T10:15:04.578Z,51.35
2022-12-18T10:17:44.544Z,50.30
2022-12-18T10:20:18.187Z,49.68
2022-12-18T10:22:55.555Z,48.30
2022-12-18T10:25:26.413Z,47.42
2022-12-18T10:27:57.936Z,46.22
2022-12-18T10:30:27.531Z,46.57
2022-12-18T10:33:02.427Z,46.36
2022-12-18T10:35:30.706Z,47.24
2022-12-18T10:38:07.532Z,47.36
2022-12-18T10:40:50.273Z,48.86
2022-12-18T10:43:23.883Z,50.08
2022-12-18T10:46:04.558Z,50.74
2022-12-18T10:48:35.343Z,49.49
2022-12-18T10:51:13.103Z,49.45
2022-12-18T10:53:44.100Z,51.07
2022-12-18T10:56:12.784Z,51.96
2022-12-18T10:58:41.804Z,51.14
2022-12-18T11:01:12.639Z,51.29
2022-12-18T11:03:44.270Z,52.03
2022-12-18T11:06:15.143Z,54.64
2022-12-18T11:08:45.015Z,54.33
2022-12-18T11:11:23.850Z,54.84
2022-12-18T11:14:01.005Z,55.04
2022-12-18T11:16:31.887Z,56.57
2022-12-18T11:19:17.322Z,56.95
2022-12-18T11:21:45.444Z,56.18
2022-12-18T11:24:22.901Z,54.16
2022-12-18T11:26:54.978Z,52.43
2022-12-18T11:29:34.342Z,50.21
2022-12-18T11:32:26.765Z,49.07
2022-12-18T11:35:04.270Z,49.12
2022-12-18T11:37:34.983Z,47.80
2022-12-18T11:40:09.243Z,46.98
2022-12-18T11:42:43.642Z,47.42
2022-12-18T11:45:26.810Z,48.12
2022-12-18T11:48:01.435Z,48.89
2022-12-18T11:50:40.378Z,47.94
2022-12-18T11:53:13.437Z,47.46
2022-12-18T11:55:48.660Z,46.73
2022-12-18T11:58:31.719Z,47.23
2022-12-18T12:01:15.450Z,46.47
2022-12-18T12:04:01.316Z,46.85
2022-12-18T12:06:38.575Z,45.34
2022-12-18T12:09:15.741Z,45.10
2022-12-18T12:11:54.096Z,46.05
2022-12-18T12:14:45.534Z,49.18
2022-12-18T12:17:20.163Z,50.12
2022-12-18T12:19:55.348Z,50.89
2022-12-18T12:22:32.976Z,52.46
2022-12-18T12:25:19.052Z,52.70
2022-12-18T12:27:58.170Z,53.10
2022-12-18T12:30:34.940Z,53.81
2022-12-18T12:33:18.687Z,52.30
2022-12-18T12:35:54.950Z,51.73
2022-12-18T12:38:29.401Z,50.53
2022-12-18T12:41:04.011Z,52.22
2022-12-18T12:43:47.974Z,52.49
2022-12-18T12:46:20.037Z,51.42
2022-12-18T12:48:50.479Z,50.64
2022-12-18T12:51:23.320Z,50.71
2022-12-18T12:53:55.445Z,52.31
2022-12-18T12:56:24.423Z,52.75
2022-12-18T12:59:01.596Z,51.86
2022-12-18T13:01:38.120Z,53.58
2022-12-18T13:04:20.027Z,53.48
2022-12-18T13:06:55.665Z,55.55
2022-12-18T13:09:25.082Z,55.27
2022-12-18T13:12:10.647Z,55.03
2022-12-18T13:14:41.004Z,54.71
2022-12-18T13:17:32.157Z,55.41
2022-12-18T13:20:13.294Z,56.90
2022-12-18T13:22:47.039Z,55.99
2022-12-18T13:25:37.815Z,57.41
2022-12-18T13:28:12.602Z,56.77
2022-12-18T13:30:49.426Z,57.17
2022-12-18T13:34:02.195Z,58.44
2022-12-18T13:36:34.119Z,59.43
2022-12-18T13:39:32.756Z,58.46
2022-12-18T13:42:57.418Z,59.82
2022-12-18T13:45:46.885Z,59.64
2022-12-18T13:48:26.172Z,60.30
2022-12-18T13:51:01.061Z,61.29
2022-12-18T13:53:32.593Z,61.35
2022-12-18T13:56:01.214Z,61.64
2022-12-18T13:58:29.352Z,61.46
2022-12-18T14:01:00.315Z,60.60
2022-12-18T14:03:30.257Z,61.78
2022-12-18T14:06:03.339Z,62.27
2022-12-18T14:08:37.849Z,62.49
2022-12-18T14:11:08.257Z,62.73
2022-12-18T14:13:41.757Z,62.73
2022-12-18T14:16:16.710Z,63.10
2022-12-18T14:18:48.708Z,62.98
2022-12-18T14:21:22.922Z,63.41
2022-12-18T14:23:51.306Z,63.34
2022-12-18T14:26:29.825Z,64.05
2022-12-18T14:28:58.530Z,64.01
2022-12-18T14:31:30.377Z,63.58
2022-12-18T14:33:58.745Z,63.66
2022-12-18T14:36:28.704Z,64.05
2022-12-18T14:38:57.540Z,64.51
2022-12-18T14:41:26.811Z,64.15
2022-12-18T14:43:55.944Z,63.93
2022-12-18T14:46:36.596Z,64.50
2022-12-18T14:49:06.869Z,64.63
2022-12-18T14:51:36.190Z,64.99
2022-12-18T14:54:08.927Z,65.67
2022-12-18T14:56:45.341Z,66.08
2022-12-18T14:59:23.759Z,65.94
2022-12-18T15:02:01.490Z,66.05
2022-12-18T15:04:32.988Z,66.17
2022-12-18T15:07:12.254Z,66.69
2022-12-18T15:09:40.648Z,66.55
2022-12-18T15:12:26.701Z,66.90
2022-12-18T15:14:54.888Z,66.56
2022-12-18T15:17:26.902Z,67.35
2022-12-18T15:20:00.936Z,67.59
2022-12-18T15:22:31.357Z,67.31
2022-12-18T15:25:00.644Z,67.48
2022-12-18T15:27:30.413Z,68.12
2022-12-18T15:30:20.850Z,67.99
2022-12-18T15:32:51.058Z,68.36
2022-12-18T15:35:21.477Z,68.58
2022-12-18T15:37:49.940Z,69.00
2022-12-18T15:40:19.568Z,69.05
2022-12-18T15:43:06.802Z,69.33
2022-12-18T15:45:35.258Z,69.55
2022-12-18T15:48:20.716Z,69.79
2022-12-18T15:50:48.814Z,69.51
2022-12-18T15:53:16.837Z,69.90
2022-12-18T15:56:04.506Z,70.55
2022-12-18T15:58:33.810Z,71.20
2022-12-18T16:01:02.675Z,71.36
2022-12-18T16:03:32.690Z,71.79
2022-12-18T16:06:03.001Z,71.96
2022-12-18T16:08:32.251Z,72.38
2022-12-18T16:11:00.591Z,72.31
2022-12-18T16:13:28.545Z,72.45
2022-12-18T16:15:56.598Z,72.44
2022-12-18T16:18:24.826Z,72.92
2022-12-18T16:20:54.560Z,72.90
2022-12-18T16:23:22.487Z,72.70
2022-12-18T16:25:50.353Z,72.39
2022-12-18T16:28:18.302Z,72.99
2022-12-18T16:30:46.240Z,72.88
2022-12-18T16:33:14.153Z,73.15
2022-12-18T16:35:42.519Z,73.19
2022-12-18T16:38:12.201Z,72.68
2022-12-18T16:41:00.017Z,72.61
2022-12-18T16:43:30.043Z,72.88
2022-12-18T16:46:00.673Z,72.85
2022-12-18T16:48:28.623Z,73.05
2022-12-18T16:51:03.604Z,73.25
2022-12-18T16:53:34.391Z,73.15
2022-12-18T16:56:03.139Z,72.94
2022-12-18T16:58:32.463Z,73.35
2022-12-18T17:01:00.471Z,73.67
2022-12-18T17:03:28.475Z,72.98
2022-12-18T17:05:56.455Z,73.17
2022-12-18T17:08:24.395Z,73.44
2022-12-18T17:10:53.667Z,73.52
2022-12-18T17:13:25.917Z,73.62
2022-12-18T17:15:54.198Z,73.46
2022-12-18T17:18:22.638Z,73.56
2022-12-18T17:20:50.645Z,73.08
2022-12-18T17:23:18.581Z,73.45
2022-12-18T17:25:46.590Z,73.48
2022-12-18T17:28:15.919Z,73.83
2022-12-18T17:30:43.789Z,73.82
2022-12-18T17:33:11.722Z,73.20
2022-12-18T17:35:39.911Z,73.10
2022-12-18T17:38:09.130Z,72.71
2022-12-18T17:40:41.802Z,72.54
2022-12-18T17:43:13.051Z,72.76
2022-12-18T17:45:42.558Z,72.10
2022-12-18T17:48:10.967Z,72.60
2022-12-18T17:50:39.394Z,73.30
2022-12-18T17:53:07.356Z,72.84
2022-12-18T17:55:35.299Z,72.26
2022-12-18T17:58:03.418Z,72.84
2022-12-18T18:00:31.657Z,73.03
2022-12-18T18:03:01.475Z,72.86
2022-12-18T18:05:29.510Z,72.61
2022-12-18T18:07:57.465Z,72.84
2022-12-18T18:10:25.384Z,73.41
2022-12-18T18:13:10.785Z,73.39
2022-12-18T18:15:40.779Z,73.72
2022-12-18T18:18:10.661Z,74.29
2022-12-18T18:20:41.048Z,73.84
2022-12-18T18:23:10.390Z,73.61
2022-12-18T18:25:38.467Z,73.41
2022-12-18T18:28:06.586Z,73.31
2022-12-18T18:30:34.656Z,72.68
2022-12-18T18:33:04.649Z,73.36
2022-12-18T18:35:53.780Z,73.45
2022-12-18T18:38:22.476Z,74.29
2022-12-18T18:40:50.445Z,74.14
2022-12-18T18:43:19.583Z,74.54
2022-12-18T18:45:50.443Z,74.77
2022-12-18T18:48:18.836Z,74.88
2022-12-18T18:50:57.549Z,74.51
2022-12-18T18:53:25.513Z,74.99
2022-12-18T18:56:26.158Z,75.10
2022-12-18T18:58:41.955Z,75.20
2022-12-18T19:01:13.087Z,75.49
2022-12-18T19:03:41.473Z,75.59
2022-12-18T19:06:15.200Z,75.85
2022-12-18T19:08:44.289Z,76.11
2022-12-18T19:11:26.681Z,76.64
2022-12-18T19:13:56.363Z,76.80
2022-12-18T19:16:27.793Z,76.69
2022-12-18T19:19:01.407Z,77.46
2022-12-18T19:21:34.273Z,77.66
2022-12-18T19:24:03.498Z,77.60
2022-12-18T19:26:31.740Z,77.74
2022-12-18T19:29:02.545Z,78.46
2022-12-18T19:31:35.228Z,78.86
2022-12-18T19:34:05.121Z,78.80
2022-12-18T19:36:36.144Z,79.24
2022-12-18T19:39:10.288Z,79.55
2022-12-18T19:41:38.419Z,79.75
2022-12-18T19:44:08.246Z,80.43
2022-12-18T19:46:41.660Z,80.61
2022-12-18T19:49:10.375Z,80.81
2022-12-18T19:51:42.543Z,80.62
2022-12-18T19:54:16.184Z,81.02
2022-12-18T19:56:45.063Z,81.47
2022-12-18T19:59:13.140Z,81.57
2022-12-18T20:01:41.383Z,81.36
2022-12-18T20:04:09.574Z,82.03
2022-12-18T20:06:49.373Z,82.07
2022-12-18T20:09:18.173Z,82.41
2022-12-18T20:11:47.204Z,82.48
2022-12-18T20:14:19.688Z,82.30
2022-12-18T20:16:51.386Z,82.75
2022-12-18T20:19:19.761Z,82.48
2022-12-18T20:21:50.016Z,83.08
2022-12-18T20:24:18.013Z,83.04
2022-12-18T20:26:46.215Z,83.07
2022-12-18T20:29:14.100Z,83.31
2022-12-18T20:31:42.290Z,83.48
2022-12-18T20:34:10.388Z,83.25
2022-12-18T20:36:38.834Z,83.57
2022-12-18T20:39:10.983Z,83.72
2022-12-18T20:41:40.331Z,83.57
2022-12-18T20:44:21.934Z,84.00
2022-12-18T20:46:53.752Z,83.79
2022-12-18T20:49:22.174Z,83.59
2022-12-18T20:51:53.527Z,83.46
2022-12-18T20:54:24.169Z,83.76
2022-12-18T20:56:52.246Z,83.62
2022-12-18T20:59:20.341Z,83.49
2022-12-18T21:01:49.503Z,83.50
2022-12-18T21:04:18.667Z,83.61
2022-12-18T21:06:51.458Z,83.70
2022-12-18T21:09:22.621Z,83.83
2022-12-18T21:12:08.935Z,83.21
2022-12-18T21:14:40.370Z,83.51
2022-12-18T21:17:08.451Z,83.26
2022-12-18T21:19:36.835Z,83.32
2022-12-18T21:22:05.585Z,83.86
2022-12-18T21:24:35.098Z,83.27
2022-12-18T21:27:03.616Z,82.99
2022-12-18T21:29:31.774Z,82.79
2022-12-18T21:32:00.729Z,82.69
2022-12-18T21:34:30.967Z,82.34
2022-12-18T21:37:01.254Z,82.55
2022-12-18T21:39:30.675Z,82.64
2022-12-18T21:42:17.589Z,82.28
2022-12-18T21:44:48.046Z,82.31
2022-12-18T21:47:23.036Z,82.23
2022-12-18T21:49:53.103Z,82.29
2022-12-18T21:52:27.259Z,81.87
2022-12-18T21:55:06.568Z,81.61
2022-12-18T21:57:39.225Z,81.98
2022-12-18T22:00:08.862Z,81.63
2022-12-18T22:02:43.044Z,82.13
2022-12-18T22:05:11.217Z,82.09
2022-12-18T22:07:39.865Z,82.26
2022-12-18T22:10:09.118Z,81.82
2022-12-18T22:12:44.172Z,82.12
2022-12-18T22:15:21.320Z,82.16
2022-12-18T22:17:50.214Z,82.21
2022-12-18T22:20:18.229Z,81.27
2022-12-18T22:22:48.227Z,81.73
2022-12-18T22:25:16.251Z,81.38
2022-12-18T22:28:06.035Z,81.59
2022-12-18T22:30:33.211Z,81.36
2022-12-18T22:33:01.766Z,81.34
2022-12-18T22:35:29.744Z,81.67
2022-12-18T22:37:59.387Z,81.43
2022-12-18T22:40:27.871Z,81.54
2022-12-18T22:42:57.760Z,80.98
2022-12-18T22:45:26.599Z,81.70
2022-12-18T22:47:54.798Z,81.28
2022-12-18T22:50:22.887Z,80.99
2022-12-18T22:52:50.872Z,81.23
2022-12-18T22:55:18.863Z,81.10
2022-12-18T22:57:49.033Z,81.31
2022-12-18T23:00:23.907Z,81.84
2022-12-18T23:02:59.488Z,81.77
2022-12-18T23:05:30.004Z,82.16
2022-12-18T23:07:58.054Z,81.26
2022-12-18T23:10:26.273Z,81.54
2022-12-18T23:12:54.309Z,81.03
2022-12-18T23:15:28.175Z,80.71
2022-12-18T23:17:58.709Z,81.13
2022-12-18T23:20:27.126Z,81.41
2022-12-18T23:22:55.160Z,80.89
2022-12-18T23:25:23.109Z,81.24
2022-12-18T23:27:51.136Z,81.26
2022-12-18T23:30:19.275Z,81.19
2022-12-18T23:32:48.639Z,80.84
2022-12-18T23:35:16.496Z,81.55
2022-12-18T23:38:00.919Z,81.35
2022-12-18T23:40:30.428Z,81.81
2022-12-18T23:42:58.154Z,81.96
2022-12-18T23:45:26.136Z,82.20
2022-12-18T23:47:55.422Z,82.15
2022-12-18T23:50:29.060Z,82.72
2022-12-18T23:53:04.997Z,82.92
2022-12-18T23:55:38.517Z,82.90
2022-12-18T23:58:06.620Z,82.87
